Time;durP1;ratioP1;P1;durP2;ratioP2;P2;SDS_P1;SDS_P2;PMS_P1;PMS_P2;Temp;Humidity;BMP_temperature;BMP_pressure;BME280_temperature;BME280_humidity;BME280_pressure;Samples;Min_cycle;Max_cycle;Signal;HPM_P1;HPM_P2
2023/05/20 00:02:59;;;;;;;16.80;15.40;;;;;;;12.97;82.82;100727.13;10257093;28;20520;-72
2023/05/20 00:08:06;;;;;;;17.88;16.33;;;;;;;12.90;83.36;100728.19;10259784;29;20125;-73
2023/05/20 00:13:07;;;;;;;18.60;17.20;;;;;;;12.72;84.62;100723.47;10260593;29;20133;-73
2023/05/20 00:18:09;;;;;;;20.50;18.73;;;;;;;12.71;85.35;100724.38;10259489;28;20066;-73
2023/05/20 00:23:11;;;;;;;18.77;17.38;;;;;;;12.49;86.50;100719.72;10274057;28;20059;-73
2023/05/20 00:28:13;;;;;;;20.52;18.98;;;;;;;12.55;86.68;100710.78;10273714;28;20055;-72
2023/05/20 00:33:14;;;;;;;19.98;18.17;;;;;;;12.45;86.76;100709.31;10258781;29;20054;-73
2023/05/20 00:38:16;;;;;;;19.30;17.90;;;;;;;12.38;87.49;100705.97;10289999;28;20042;-73
2023/05/20 00:43:19;;;;;;;18.33;17.10;;;;;;;12.35;87.90;100706.94;10260299;28;20039;-73
2023/05/20 00:48:21;;;;;;;19.95;18.38;;;;;;;12.37;87.67;100705.13;10259779;29;20047;-73
2023/05/20 00:53:23;;;;;;;19.17;17.52;;;;;;;12.47;87.47;100712.75;10273759;28;20055;-73
2023/05/20 00:58:25;;;;;;;19.63;18.23;;;;;;;12.34;87.73;100712.25;10273866;28;20071;-73
2023/05/20 01:03:27;;;;;;;18.70;17.20;;;;;;;12.14;89.58;100710.19;10259413;29;20055;-73
2023/05/20 01:08:31;;;;;;;20.13;18.52;;;;;;;12.26;88.81;100709.84;10257920;29;20039;-73
2023/05/20 01:13:42;;;;;;;18.35;16.95;;;;;;;12.23;88.93;100714.34;10256278;28;20126;-72
2023/05/20 01:18:47;;;;;;;20.38;18.73;;;;;;;12.19;89.92;100716.19;10257448;29;20043;-71
2023/05/20 01:23:49;;;;;;;18.80;17.48;;;;;;;12.06;90.19;100706.88;10257144;29;20047;-72
2023/05/20 01:28:50;;;;;;;20.27;18.77;;;;;;;12.11;90.52;100713.75;10257876;28;20122;-72
2023/05/20 01:33:56;;;;;;;20.00;18.55;;;;;;;12.05;91.16;100711.28;10255310;29;20556;-72
2023/05/20 01:39:01;;;;;;;19.98;18.58;;;;;;;12.10;90.80;100713.81;10257165;29;20126;-72
2023/05/20 01:44:02;;;;;;;21.00;19.40;;;;;;;12.14;90.89;100726.00;10256487;29;20106;-72
2023/05/20 01:49:04;;;;;;;22.00;20.27;;;;;;;11.92;92.13;100717.78;10254644;28;20035;-72
2023/05/20 01:54:07;;;;;;;22.38;20.48;;;;;;;12.25;90.68;100721.28;10255811;29;20047;-72
2023/05/20 01:59:09;;;;;;;21.40;19.60;;;;;;;12.19;90.92;100705.63;10256350;28;20081;-72
2023/05/20 02:04:11;;;;;;;22.58;20.50;;;;;;;12.03;91.64;100704.31;10270661;28;20131;-72
2023/05/20 02:09:13;;;;;;;22.70;20.75;;;;;;;11.83;93.32;100700.47;10255589;29;20052;-72
2023/05/20 02:14:14;;;;;;;21.23;19.63;;;;;;;11.95;93.35;100709.78;10286529;28;20047;-72
2023/05/20 02:19:22;;;;;;;21.63;20.13;;;;;;;11.72;95.82;100709.50;10253935;28;20079;-72
2023/05/20 02:24:24;;;;;;;23.65;21.55;;;;;;;11.87;94.65;100709.16;10269711;28;20074;-72
2023/05/20 02:29:26;;;;;;;23.15;21.42;;;;;;;11.88;94.44;100702.97;10256530;28;20114;-72
2023/05/20 02:34:29;;;;;;;21.88;20.27;;;;;;;11.95;95.15;100701.88;10254625;28;20047;-72
2023/05/20 02:39:31;;;;;;;20.95;19.33;;;;;;;11.96;94.91;100701.00;10285813;28;20050;-72
2023/05/20 02:44:33;;;;;;;19.85;18.45;;;;;;;11.93;95.28;100695.81;10285788;28;20055;-72
2023/05/20 02:49:35;;;;;;;20.40;19.00;;;;;;;11.81;95.76;100696.94;10268817;28;20129;-72
2023/05/20 02:54:37;;;;;;;21.40;19.90;;;;;;;11.58;97.91;100684.38;10254195;29;20051;-72
2023/05/20 02:59:39;;;;;;;21.27;19.70;;;;;;;11.62;97.93;100672.88;10254391;28;20127;-72
2023/05/20 03:04:41;;;;;;;23.67;20.38;;;;;;;11.54;98.49;100660.81;10268465;28;20051;-72
2023/05/20 03:09:43;;;;;;;22.02;20.23;;;;;;;11.73;97.54;100656.81;10268452;28;20066;-73
2023/05/20 03:14:45;;;;;;;20.05;18.45;;;;;;;11.71;97.44;100663.88;10254128;28;20130;-73
2023/05/20 03:19:47;;;;;;;21.45;19.85;;;;;;;11.53;99.13;100675.75;10252435;28;20067;-72
2023/05/20 03:24:48;;;;;;;22.45;20.55;;;;;;;11.67;97.67;100664.00;10252328;28;20135;-72
2023/05/20 03:29:53;;;;;;;21.10;19.50;;;;;;;11.73;97.43;100676.97;10255004;28;20044;-72
2023/05/20 03:34:56;;;;;;;22.05;20.15;;;;;;;11.62;98.60;100675.50;10252903;28;20054;-73
2023/05/20 03:39:58;;;;;;;22.42;20.50;;;;;;;11.78;97.10;100675.13;10260407;28;20050;-72
2023/05/20 03:45:00;;;;;;;21.95;20.05;;;;;;;11.73;98.01;100683.16;10276884;28;20050;-73
2023/05/20 03:50:06;;;;;;;22.42;20.58;;;;;;;11.72;97.67;100686.66;10275610;28;20208;-72
2023/05/20 03:55:09;;;;;;;22.73;21.02;;;;;;;11.87;97.01;100685.44;10276497;28;20051;-73
2023/05/20 04:00:13;;;;;;;22.10;20.27;;;;;;;11.68;98.80;100684.16;10261158;29;20394;-73
2023/05/20 04:05:18;;;;;;;21.17;19.67;;;;;;;11.67;99.20;100687.69;10261732;28;20058;-72
2023/05/20 04:10:21;;;;;;;21.55;19.75;;;;;;;11.80;98.24;100681.19;10291326;28;20509;-73
2023/05/20 04:15:25;;;;;;;21.90;20.40;;;;;;;11.85;97.59;100677.56;10274793;28;20068;-72
2023/05/20 04:20:29;;;;;;;23.15;21.45;;;;;;;11.92;97.33;100674.78;10274662;28;20043;-73
2023/05/20 04:25:34;;;;;;;22.17;20.40;;;;;;;12.15;95.62;100677.63;10290661;28;20062;-72
2023/05/20 04:30:37;;;;;;;21.48;19.65;;;;;;;11.97;97.46;100686.91;10291294;28;20058;-73
2023/05/20 04:35:40;;;;;;;22.38;20.77;;;;;;;11.82;98.99;100682.00;10275093;28;20086;-73
2023/05/20 04:40:43;;;;;;;23.08;20.90;;;;;;;12.13;97.31;100692.66;10290717;28;20047;-73
2023/05/20 04:45:46;;;;;;;20.67;19.08;;;;;;;12.18;95.74;100688.09;10259423;28;20043;-73
2023/05/20 04:50:49;;;;;;;23.58;21.73;;;;;;;12.31;95.29;100689.50;10260076;29;20043;-73
2023/05/20 04:55:55;;;;;;;22.67;20.95;;;;;;;12.38;94.23;100685.75;10259741;28;20101;-73
2023/05/20 05:00:58;;;;;;;23.48;21.73;;;;;;;12.46;94.08;100677.63;10290993;28;20094;-73
2023/05/20 05:06:00;;;;;;;22.95;21.15;;;;;;;12.43;94.74;100677.72;10258253;28;20047;-72
2023/05/20 05:11:05;;;;;;;22.75;21.00;;;;;;;12.43;95.37;100668.94;10290923;28;20047;-72
2023/05/20 05:16:07;;;;;;;24.30;22.45;;;;;;;12.49;95.73;100674.06;10259620;29;20047;-72
2023/05/20 05:21:09;;;;;;;23.70;21.70;;;;;;;12.65;94.09;100672.66;10273955;28;20394;-72
2023/05/20 05:26:12;;;;;;;23.02;21.40;;;;;;;12.38;95.95;100672.56;10290221;28;20054;-72
2023/05/20 05:31:13;;;;;;;22.40;20.75;;;;;;;12.42;96.36;100673.34;10273586;28;20142;-72
2023/05/20 05:36:16;;;;;;;22.63;20.77;;;;;;;12.55;95.87;100680.00;10257031;29;20057;-72
2023/05/20 05:41:18;;;;;;;25.00;23.10;;;;;;;12.81;94.12;100686.25;10290015;28;20051;-72
2023/05/20 05:46:20;;;;;;;25.13;23.20;;;;;;;12.70;95.66;100683.94;10258126;28;20390;-72
2023/05/20 05:51:24;;;;;;;26.92;24.88;;;;;;;12.69;95.30;100684.00;10272381;28;20098;-72
2023/05/20 05:56:26;;;;;;;27.17;25.17;;;;;;;12.65;95.76;100671.81;10273281;28;20051;-72
2023/05/20 06:01:29;;;;;;;28.05;25.73;;;;;;;12.75;96.07;100670.59;10257142;28;20528;-71
2023/05/20 06:06:32;;;;;;;29.33;26.80;;;;;;;12.68;97.35;100671.72;10257139;29;20047;-72
2023/05/20 06:11:34;;;;;;;27.60;25.17;;;;;;;12.88;94.67;100662.28;10273946;28;20074;-73
2023/05/20 06:16:36;;;;;;;29.83;27.45;;;;;;;12.94;95.15;100668.28;10257980;29;20054;-72
2023/05/20 06:21:38;;;;;;;28.13;25.10;;;;;;;13.21;92.25;100671.81;10255596;28;20054;-72
2023/05/20 06:26:40;;;;;;;26.48;24.48;;;;;;;13.24;92.17;100669.97;10288190;28;20529;-73
2023/05/20 06:31:42;;;;;;;28.45;26.23;;;;;;;13.20;93.14;100659.53;10260045;29;20074;-72
2023/05/20 06:36:44;;;;;;;26.70;24.67;;;;;;;13.29;92.45;100664.53;10256957;29;20083;-71
2023/05/20 06:41:46;;;;;;;28.67;26.50;;;;;;;13.46;91.26;100661.31;10272531;28;20050;-72
2023/05/20 06:47:00;;;;;;;26.35;24.45;;;;;;;13.38;91.72;100666.88;10289364;28;20047;-72
2023/05/20 06:52:04;;;;;;;27.42;25.23;;;;;;;13.60;89.94;100652.03;10258023;28;20048;-72
2023/05/20 06:57:07;;;;;;;27.13;24.95;;;;;;;13.71;89.21;100649.00;10272355;28;20071;-72
2023/05/20 07:02:10;;;;;;;25.88;23.67;;;;;;;13.75;88.58;100644.47;10236950;29;20071;-73
2023/05/20 07:07:12;;;;;;;27.63;25.38;;;;;;;13.72;88.25;100644.56;10254651;28;20039;-72
2023/05/20 07:12:19;;;;;;;28.70;26.60;;;;;;;13.79;88.99;100631.09;10273732;28;20134;-72
2023/05/20 07:17:21;;;;;;;27.67;25.45;;;;;;;14.04;87.08;100632.88;10280060;28;20051;-71
2023/05/20 07:22:24;;;;;;;26.33;23.65;;;;;;;14.40;85.60;100633.28;10279232;28;20536;-72
2023/05/20 07:27:31;;;;;;;27.00;24.90;;;;;;;14.45;83.62;100636.63;10278872;28;20098;-72
2023/05/20 07:32:32;;;;;;;26.95;24.75;;;;;;;14.61;83.68;100616.63;10295412;28;20082;-73
2023/05/20 07:37:34;;;;;;;25.40;23.40;;;;;;;14.87;82.05;100620.91;10279652;28;20051;-72
2023/05/20 07:42:37;;;;;;;23.48;21.73;;;;;;;15.12;80.05;100617.22;10296480;28;20055;-73
2023/05/20 07:47:38;;;;;;;26.02;23.65;;;;;;;15.45;78.60;100620.28;10264591;28;20043;-71
2023/05/20 07:52:41;;;;;;;25.00;22.65;;;;;;;15.53;77.15;100612.81;10278572;28;20052;-71
2023/05/20 07:57:58;;;;;;;24.42;22.80;;;;;;;15.63;77.06;100619.47;10278387;28;20057;-70
2023/05/20 08:03:00;;;;;;;25.40;23.40;;;;;;;15.52;76.23;100616.41;10278684;28;20134;-70
2023/05/20 08:08:11;;;;;;;23.88;22.30;;;;;;;15.59;77.61;100614.38;10277815;28;20047;-71
2023/05/20 08:13:24;;;;;;;23.52;21.75;;;;;;;15.94;75.28;100604.00;10276159;28;20058;-71
2023/05/20 08:18:26;;;;;;;24.55;22.77;;;;;;;15.82;75.85;100593.03;10274449;28;20051;-71
2023/05/20 08:23:28;;;;;;;22.55;20.85;;;;;;;16.34;73.38;100580.06;10259479;28;20039;-70
2023/05/20 08:28:30;;;;;;;22.10;20.38;;;;;;;17.27;68.81;100587.09;10260741;29;20051;-71
2023/05/20 08:33:32;;;;;;;21.52;19.83;;;;;;;17.40;68.37;100583.72;10280150;28;20043;-72
2023/05/20 08:38:35;;;;;;;21.25;19.45;;;;;;;17.39;67.42;100579.31;10278745;28;20608;-72
2023/05/20 08:43:37;;;;;;;20.48;19.08;;;;;;;17.45;66.99;100569.34;10260979;28;20053;-71
2023/05/20 08:48:40;;;;;;;21.25;19.77;;;;;;;17.23;67.75;100564.28;10261930;28;20055;-71
2023/05/20 08:53:42;;;;;;;21.92;20.10;;;;;;;17.18;68.56;100555.66;10263472;28;20516;-72
2023/05/20 08:58:45;;;;;;;20.35;18.73;;;;;;;16.98;68.55;100554.88;10261570;29;20066;-71
2023/05/20 09:03:47;;;;;;;20.63;19.00;;;;;;;16.89;68.87;100560.63;10277761;28;20043;-71
2023/05/20 09:08:52;;;;;;;20.98;19.50;;;;;;;17.07;68.10;100562.38;10262056;29;20106;-71
2023/05/20 09:13:55;;;;;;;21.73;20.20;;;;;;;17.40;66.85;100561.63;10261710;28;20542;-73
2023/05/20 09:18:56;;;;;;;19.67;18.38;;;;;;;18.07;64.73;100557.22;10277202;28;20047;-73
2023/05/20 09:24:01;;;;;;;19.55;17.83;;;;;;;18.60;62.65;100548.91;10263040;28;20071;-72
2023/05/20 09:29:03;;;;;;;19.55;18.15;;;;;;;19.14;60.71;100556.47;10261787;28;20059;-72
2023/05/20 09:34:06;;;;;;;19.55;17.95;;;;;;;19.02;59.82;100544.72;10276287;28;20098;-73
2023/05/20 09:39:13;;;;;;;19.25;17.95;;;;;;;18.97;60.58;100554.78;10261704;29;20054;-72
2023/05/20 09:44:16;;;;;;;19.40;17.80;;;;;;;18.98;60.60;100540.50;10261987;29;20129;-72
2023/05/20 09:49:19;;;;;;;18.60;17.30;;;;;;;19.27;60.81;100536.13;10348592;23;20044;-72
2023/05/20 09:54:22;;;;;;;17.63;16.42;;;;;;;20.16;57.79;100526.19;10508990;28;20040;-72
2023/05/20 09:59:32;;;;;;;18.58;17.00;;;;;;;20.13;57.47;100510.34;10496159;28;20395;-71
2023/05/20 10:04:36;;;;;;;17.67;16.48;;;;;;;20.35;56.50;100514.31;10492596;28;20386;-72
2023/05/20 10:09:53;;;;;;;16.23;14.65;;;;;;;21.02;54.99;100509.88;10493163;28;20151;-71
2023/05/20 10:15:14;;;;;;;17.02;15.75;;;;;;;21.53;53.37;100504.63;10494227;28;20414;-73
2023/05/20 10:20:15;;;;;;;17.77;16.48;;;;;;;20.77;56.39;100488.47;10492324;28;20470;-73
2023/05/20 10:25:26;;;;;;;16.55;15.23;;;;;;;21.34;52.75;100488.16;10492258;28;20047;-74
2023/05/20 10:30:29;;;;;;;15.85;14.45;;;;;;;21.73;54.04;100489.81;10492769;28;20049;-71
2023/05/20 10:35:32;;;;;;;15.63;14.25;;;;;;;22.38;50.50;100483.38;10493227;28;20040;-71
2023/05/20 10:40:34;;;;;;;16.10;14.90;;;;;;;21.90;52.22;100492.16;10474024;28;20045;-71
2023/05/20 10:45:53;;;;;;;15.25;13.85;;;;;;;21.72;52.14;100479.25;10491314;28;20052;-71
2023/05/20 10:50:56;;;;;;;16.13;14.98;;;;;;;21.21;54.27;100485.44;10491312;28;20123;-71
2023/05/20 10:55:58;;;;;;;14.77;13.77;;;;;;;21.56;52.13;100466.09;10492639;28;20044;-72
2023/05/20 11:01:02;;;;;;;16.63;15.23;;;;;;;21.41;53.10;100466.22;10492886;28;20048;-72
2023/05/20 11:06:14;;;;;;;13.75;12.85;;;;;;;22.01;51.71;100459.28;10490206;28;20041;-72
2023/05/20 11:11:19;;;;;;;15.55;14.45;;;;;;;22.01;51.93;100453.94;10463913;28;20049;-73
2023/05/20 11:16:21;;;;;;;16.33;15.07;;;;;;;22.24;51.29;100446.06;10464120;28;20045;-73
2023/05/20 11:21:23;;;;;;;14.30;13.25;;;;;;;22.07;51.95;100447.25;10462251;28;20049;-73
2023/05/20 11:26:25;;;;;;;14.15;13.35;;;;;;;21.89;52.19;100434.25;10462811;28;20068;-73
2023/05/20 11:31:26;;;;;;;14.38;13.27;;;;;;;21.69;52.09;100440.19;10462949;28;20048;-73
2023/05/20 11:36:29;;;;;;;13.57;12.57;;;;;;;22.09;54.48;100435.50;10463383;28;20474;-72
2023/05/20 11:41:32;;;;;;;14.05;12.95;;;;;;;22.27;53.43;100435.09;10464521;28;20125;-72
2023/05/20 11:46:43;;;;;;;16.98;12.25;;;;;;;22.50;53.93;100411.97;10462262;28;20041;-71
2023/05/20 11:51:45;;;;;;;13.82;12.80;;;;;;;23.01;49.97;100425.06;10462211;28;20052;-72
2023/05/20 11:56:47;;;;;;;13.63;12.50;;;;;;;23.06;50.57;100417.50;10461369;28;20040;-72
2023/05/20 12:01:48;;;;;;;11.30;10.45;;;;;;;22.85;50.30;100398.56;10464463;28;20069;-72
2023/05/20 12:06:51;;;;;;;13.55;12.35;;;;;;;23.02;50.44;100403.50;10461203;28;20083;-74
2023/05/20 12:11:55;;;;;;;12.80;11.95;;;;;;;22.05;52.06;100396.53;10461086;28;20045;-73
2023/05/20 12:16:57;;;;;;;12.88;11.98;;;;;;;21.65;53.51;100391.41;10459986;28;20119;-73
2023/05/20 12:21:59;;;;;;;12.23;11.50;;;;;;;21.87;52.16;100369.28;10443468;28;20056;-73
2023/05/20 12:27:02;;;;;;;12.88;11.95;;;;;;;22.11;52.16;100371.13;10443323;28;20071;-73
2023/05/20 12:32:04;;;;;;;12.70;11.90;;;;;;;22.74;50.98;100361.00;10460157;28;20037;-72
2023/05/20 12:37:07;;;;;;;12.82;11.75;;;;;;;23.06;50.15;100343.28;10459099;28;20033;-72
2023/05/20 12:42:08;;;;;;;13.10;12.07;;;;;;;23.53;50.26;100335.97;10458827;28;20099;-73
2023/05/20 12:47:10;;;;;;;12.25;11.35;;;;;;;23.75;49.33;100340.47;10461267;28;20037;-74
2023/05/20 12:52:12;;;;;;;12.82;11.88;;;;;;;22.75;50.51;100339.44;10460587;28;20045;-76
2023/05/20 12:57:23;;;;;;;12.13;11.32;;;;;;;22.39;51.78;100332.41;10460514;28;20132;-75
2023/05/20 13:02:25;;;;;;;11.77;11.05;;;;;;;22.74;52.33;100331.53;10460036;28;20052;-75
2023/05/20 13:07:27;;;;;;;12.43;11.43;;;;;;;22.91;50.10;100342.69;10462378;28;20479;-73
2023/05/20 13:12:29;;;;;;;11.90;11.10;;;;;;;22.77;50.83;100325.94;10458383;28;20049;-75
2023/05/20 13:17:31;;;;;;;11.98;11.18;;;;;;;22.55;51.39;100327.59;10459322;28;20041;-74
2023/05/20 13:22:33;;;;;;;12.20;11.32;;;;;;;22.65;50.88;100311.66;10456928;28;20045;-72
2023/05/20 13:27:34;;;;;;;12.48;11.68;;;;;;;22.43;52.67;100325.88;10458977;28;20041;-72
2023/05/20 13:32:36;;;;;;;12.98;11.82;;;;;;;22.27;52.39;100309.25;10458122;28;20057;-73
2023/05/20 13:37:38;;;;;;;11.43;10.63;;;;;;;22.28;53.24;100309.16;10458869;28;20084;-74
2023/05/20 13:42:40;;;;;;;13.02;11.95;;;;;;;22.19;52.06;100303.66;10461204;28;20063;-75
2023/05/20 13:47:42;;;;;;;12.25;11.35;;;;;;;21.83;53.03;100292.03;10457728;28;20040;-74
2023/05/20 13:52:44;;;;;;;12.98;11.90;;;;;;;21.87;54.46;100289.00;10462722;28;20052;-74
2023/05/20 13:57:46;;;;;;;12.27;11.45;;;;;;;22.14;54.01;100286.09;10458093;28;20043;-73
2023/05/20 14:02:47;;;;;;;12.60;11.60;;;;;;;21.98;53.55;100273.97;10458154;28;20041;-72
2023/05/20 14:07:49;;;;;;;12.40;11.60;;;;;;;21.72;54.32;100282.09;10458175;28;20041;-73
2023/05/20 14:12:52;;;;;;;13.82;11.10;;;;;;;21.48;55.30;100275.91;10442487;28;20115;-73
2023/05/20 14:17:53;;;;;;;12.23;11.13;;;;;;;21.21;56.12;100274.25;10458058;28;20099;-74
2023/05/20 14:22:56;;;;;;;11.77;10.88;;;;;;;21.33;56.45;100267.16;10457510;28;20064;-74
2023/05/20 14:27:57;;;;;;;13.13;12.10;;;;;;;21.52;56.42;100251.50;10458555;28;20067;-75
2023/05/20 14:32:59;;;;;;;19.27;12.68;;;;;;;21.55;56.65;100256.59;10457468;28;20053;-73
2023/05/20 14:38:01;;;;;;;14.00;12.68;;;;;;;21.65;56.76;100254.97;10456589;28;20037;-74
2023/05/20 14:43:03;;;;;;;13.07;12.15;;;;;;;21.40;56.24;100252.41;10458351;28;20114;-74
2023/05/20 14:48:05;;;;;;;14.82;13.68;;;;;;;21.28;56.67;100256.78;10463384;28;20033;-72
2023/05/20 14:53:07;;;;;;;14.32;13.43;;;;;;;21.14;57.24;100240.88;10463620;28;20120;-72
2023/05/20 14:58:09;;;;;;;12.70;11.90;;;;;;;21.04;57.33;100251.41;10465374;28;20048;-73
2023/05/20 15:03:11;;;;;;;15.30;13.23;;;;;;;21.25;56.49;100253.47;10464203;28;20049;-73
2023/05/20 15:08:13;;;;;;;14.65;13.32;;;;;;;21.28;57.23;100250.56;10464490;28;20120;-73
2023/05/20 15:13:14;;;;;;;13.93;13.02;;;;;;;21.17;57.44;100238.84;10463879;28;20123;-73
2023/05/20 15:18:16;;;;;;;13.88;12.88;;;;;;;21.10;58.44;100229.56;10464745;28;20525;-74
2023/05/20 15:23:18;;;;;;;13.88;12.88;;;;;;;21.26;58.34;100225.78;10465361;28;20538;-74
2023/05/20 15:28:21;;;;;;;13.80;12.73;;;;;;;21.20;57.91;100212.84;10479986;28;20102;-73
2023/05/20 15:33:23;;;;;;;13.82;12.50;;;;;;;21.28;56.95;100214.00;10450895;28;20079;-72
2023/05/20 15:38:25;;;;;;;15.18;12.38;;;;;;;21.26;56.06;100207.06;10465702;28;20051;-73
2023/05/20 15:43:27;;;;;;;14.13;13.07;;;;;;;21.23;57.14;100205.47;10472284;28;20048;-74
2023/05/20 15:48:33;;;;;;;14.65;13.57;;;;;;;21.23;57.37;100202.78;10498557;28;20067;-73
2023/05/20 15:53:36;;;;;;;14.60;13.38;;;;;;;21.13;58.32;100197.28;10423116;22;20137;-71
2023/05/20 15:58:41;;;;;;;14.25;13.25;;;;;;;20.97;57.41;100203.84;10383620;28;20038;-72
2023/05/20 16:03:43;;;;;;;15.25;13.85;;;;;;;20.84;57.56;100204.72;10388216;28;20045;-72
2023/05/20 16:08:44;;;;;;;14.95;13.93;;;;;;;20.69;58.19;100216.50;10382649;28;20046;-72
2023/05/20 16:13:46;;;;;;;15.30;14.25;;;;;;;20.62;59.14;100199.19;10379326;28;20466;-72
2023/05/20 16:18:48;;;;;;;15.65;14.38;;;;;;;20.72;58.88;100199.38;10400735;28;20033;-73
2023/05/20 16:23:51;;;;;;;15.52;14.52;;;;;;;21.10;56.63;100197.47;10414511;28;20398;-71
2023/05/20 16:28:53;;;;;;;15.55;14.30;;;;;;;21.31;55.43;100199.56;10380401;28;20092;-71
2023/05/20 16:33:56;;;;;;;13.98;12.95;;;;;;;21.30;56.06;100200.53;10396827;28;20127;-71
2023/05/20 16:38:57;;;;;;;14.55;13.45;;;;;;;21.21;56.33;100201.22;10402726;28;20048;-71
2023/05/20 16:43:59;;;;;;;14.43;13.43;;;;;;;20.77;57.43;100206.13;10419479;28;20045;-73
2023/05/20 16:49:01;;;;;;;15.93;14.82;;;;;;;20.52;58.01;100203.47;10416495;28;20045;-72
2023/05/20 16:54:03;;;;;;;15.25;14.27;;;;;;;20.38;58.58;100207.09;10377972;28;20038;-71
2023/05/20 16:59:06;;;;;;;16.15;13.57;;;;;;;20.24;59.10;100221.41;10377619;28;20046;-71
2023/05/20 17:04:08;;;;;;;15.55;14.45;;;;;;;20.17;59.59;100220.09;10379630;28;20050;-71
2023/05/20 17:09:10;;;;;;;15.50;14.40;;;;;;;20.16;60.17;100205.91;10377224;28;20041;-71
2023/05/20 17:14:12;;;;;;;14.50;13.57;;;;;;;20.12;60.06;100219.56;10379560;28;20125;-71
2023/05/20 17:19:14;;;;;;;14.00;12.90;;;;;;;20.15;60.11;100214.03;10377921;28;20038;-71
2023/05/20 17:24:16;;;;;;;13.70;12.70;;;;;;;20.04;61.17;100220.09;10390132;28;20075;-72
2023/05/20 17:29:17;;;;;;;13.90;12.90;;;;;;;19.87;61.38;100223.88;10419631;28;20068;-71
2023/05/20 17:34:19;;;;;;;14.30;13.30;;;;;;;19.86;61.44;100226.66;10419700;28;20049;-72
2023/05/20 17:39:21;;;;;;;15.05;13.65;;;;;;;19.54;62.76;100226.13;10420727;28;20045;-72
2023/05/20 17:44:26;;;;;;;13.43;12.50;;;;;;;19.37;63.20;100230.72;10419015;28;20052;-73
2023/05/20 17:49:27;;;;;;;13.10;12.10;;;;;;;19.30;63.30;100240.09;10419941;28;20435;-73
2023/05/20 17:54:29;;;;;;;12.70;11.80;;;;;;;19.11;63.98;100243.06;10419242;28;20037;-72
2023/05/20 17:59:35;;;;;;;12.43;11.57;;;;;;;18.85;65.17;100252.69;10418217;28;20045;-72
2023/05/20 18:04:37;;;;;;;13.65;12.48;;;;;;;18.82;65.09;100246.75;10417016;28;20041;-71
2023/05/20 18:09:39;;;;;;;13.15;11.98;;;;;;;18.62;66.15;100254.09;10416282;28;20491;-72
2023/05/20 18:14:41;;;;;;;13.05;12.00;;;;;;;18.45;66.83;100248.97;10417766;28;20103;-73
2023/05/20 18:19:43;;;;;;;13.18;12.27;;;;;;;18.37;66.89;100252.09;10423841;28;20487;-71
2023/05/20 18:24:45;;;;;;;13.02;12.13;;;;;;;18.26;67.81;100267.00;10411359;28;20444;-72
2023/05/20 18:29:48;;;;;;;13.75;12.70;;;;;;;18.13;68.24;100264.22;10385872;28;20104;-72
2023/05/20 18:34:51;;;;;;;13.02;12.23;;;;;;;18.01;68.61;100270.25;10385909;28;20056;-72
2023/05/20 18:39:55;;;;;;;13.57;12.57;;;;;;;17.97;68.84;100279.34;10384987;28;20088;-73
2023/05/20 18:44:57;;;;;;;12.75;11.85;;;;;;;17.94;69.43;100283.06;10384455;28;20050;-71
2023/05/20 18:49:59;;;;;;;13.27;12.38;;;;;;;17.97;69.83;100279.34;10383647;28;20046;-72
2023/05/20 18:55:01;;;;;;;12.65;11.88;;;;;;;17.89;69.39;100277.16;10382699;28;20046;-72
2023/05/20 19:00:07;;;;;;;13.00;12.07;;;;;;;17.67;70.90;100280.16;10383246;28;20050;-72
2023/05/20 19:05:10;;;;;;;13.13;12.23;;;;;;;17.61;70.74;100289.31;10384434;28;20053;-71
2023/05/20 19:10:13;;;;;;;12.77;11.98;;;;;;;17.52;71.29;100284.53;10382323;28;20061;-71
2023/05/20 19:15:17;;;;;;;13.63;12.50;;;;;;;17.53;71.69;100291.59;10366135;28;20145;-71
2023/05/20 19:20:19;;;;;;;13.27;12.45;;;;;;;17.34;72.49;100294.38;10384102;28;20048;-72
2023/05/20 19:25:21;;;;;;;13.73;12.82;;;;;;;17.24;73.32;100293.19;10403281;28;20045;-72
2023/05/20 19:30:23;;;;;;;14.10;13.20;;;;;;;17.14;73.67;100287.53;10422376;28;20037;-72
2023/05/20 19:35:24;;;;;;;12.60;11.80;;;;;;;17.16;74.05;100287.44;10423092;28;20060;-72
2023/05/20 19:40:27;;;;;;;13.68;12.77;;;;;;;17.10;74.59;100293.97;10423937;28;20061;-72
2023/05/20 19:45:29;;;;;;;14.95;13.85;;;;;;;16.97;75.45;100298.22;10426132;28;20124;-73
2023/05/20 19:50:31;;;;;;;14.95;13.68;;;;;;;16.97;75.99;100308.84;10407353;28;20418;-72
2023/05/20 19:55:34;;;;;;;14.07;12.98;;;;;;;16.93;75.88;100311.75;10426041;28;20069;-70
2023/05/20 20:00:38;;;;;;;15.43;14.43;;;;;;;16.80;77.16;100300.91;10423630;28;20045;-71
2023/05/20 20:05:39;;;;;;;15.32;14.32;;;;;;;16.74;77.78;100302.13;10425083;28;20076;-72
2023/05/20 20:10:41;;;;;;;16.80;15.13;;;;;;;16.58;79.07;100307.31;10420376;28;20038;-74
2023/05/20 20:15:43;;;;;;;15.70;14.70;;;;;;;16.43;79.83;100296.66;10421940;28;20149;-72
2023/05/20 20:20:45;;;;;;;16.00;14.90;;;;;;;16.60;78.89;100294.84;10421770;28;20045;-72
2023/05/20 20:25:49;;;;;;;16.67;15.48;;;;;;;16.30;80.54;100305.25;10381110;28;20050;-73
2023/05/20 20:30:51;;;;;;;15.30;14.20;;;;;;;16.10;81.79;100297.44;10420998;28;20052;-72
2023/05/20 20:35:53;;;;;;;17.08;15.95;;;;;;;15.99;83.10;100302.44;10419816;28;20041;-72
2023/05/20 20:40:58;;;;;;;17.55;16.45;;;;;;;16.32;81.50;100297.19;10420168;28;20045;-72
2023/05/20 20:45:59;;;;;;;17.52;16.42;;;;;;;16.30;81.34;100293.78;10419858;28;20228;-72
2023/05/20 20:51:01;;;;;;;18.27;16.98;;;;;;;16.21;82.07;100296.91;10419542;28;20080;-71
2023/05/20 20:56:03;;;;;;;17.65;16.45;;;;;;;16.08;82.97;100288.72;10420631;28;20049;-71
2023/05/20 21:01:05;;;;;;;19.58;17.42;;;;;;;15.92;83.73;100290.41;10419198;28;20052;-71
2023/05/20 21:06:07;;;;;;;19.58;17.60;;;;;;;15.80;84.70;100286.56;10420031;28;20403;-71
2023/05/20 21:11:09;;;;;;;19.73;18.42;;;;;;;15.78;85.30;100281.34;10420472;28;20511;-71
2023/05/20 21:16:11;;;;;;;22.50;21.00;;;;;;;15.82;85.46;100280.25;10419063;28;20045;-71
2023/05/20 21:21:13;;;;;;;23.52;21.70;;;;;;;15.76;85.33;100277.91;10417742;28;20068;-71
2023/05/20 21:26:15;;;;;;;19.90;18.58;;;;;;;15.62;86.21;100267.09;10420048;28;20065;-71
2023/05/20 21:31:17;;;;;;;18.67;17.33;;;;;;;15.33;87.46;100265.84;10419353;28;20406;-71
2023/05/20 21:36:20;;;;;;;21.83;20.35;;;;;;;15.51;86.49;100264.13;10419557;28;20045;-72
2023/05/20 21:41:23;;;;;;;21.55;20.13;;;;;;;15.20;88.57;100270.88;10418943;28;20060;-72
2023/05/20 21:46:24;;;;;;;20.25;18.85;;;;;;;15.07;89.42;100260.00;10421767;28;20391;-71
2023/05/20 21:51:26;;;;;;;21.48;19.98;;;;;;;15.48;87.39;100266.91;10418869;28;20111;-72
2023/05/20 21:56:28;;;;;;;22.20;20.58;;;;;;;15.20;89.10;100262.06;10417085;28;20499;-73
2023/05/20 22:01:30;;;;;;;22.95;21.25;;;;;;;14.98;90.15;100260.41;10416571;28;20037;-73
2023/05/20 22:06:33;;;;;;;20.88;19.50;;;;;;;14.82;91.40;100269.97;10400219;28;20491;-73
2023/05/20 22:11:36;;;;;;;22.92;21.33;;;;;;;14.84;91.72;100261.06;10417652;28;20498;-72
2023/05/20 22:16:38;;;;;;;22.08;20.58;;;;;;;14.67;92.74;100258.31;10417748;28;20041;-73
2023/05/20 22:21:41;;;;;;;20.88;19.48;;;;;;;14.48;94.15;100258.28;10416642;28;20049;-73
2023/05/20 22:26:51;;;;;;;20.65;19.33;;;;;;;14.30;94.87;100254.63;10416810;28;20042;-73
2023/05/20 22:31:53;;;;;;;21.05;19.52;;;;;;;14.30;95.15;100253.78;10417181;28;20161;-73
2023/05/20 22:36:55;;;;;;;20.75;19.25;;;;;;;14.22;95.92;100248.81;10415553;28;20044;-72
2023/05/20 22:41:56;;;;;;;22.40;20.90;;;;;;;14.25;95.89;100242.50;10416503;28;20042;-73